Strona główna
METAR-TAF:

METAR-TAF

Lotnisko :

Lotnisko Monmouth Executive

Belmar / Farmingdale, New Jersey, Stany Zjednoczone

Szerokość geograficzna: 40-11N, Długość geograficzna: 074-08W, wysokość: 48 m

Aktualna obserwacja pogody

Raport powstał 1 godzina i 3 minut temu, godzina 07:56 UTC
Wiatr 12 kt od zachodnio-południowy zachód w porywach dochodzący do 17 kt
Temperatura 6°C
Wilgotność 70%
Ciśnienie 1002 hPa
Widzialność: 16.1 km
bezchmurnie

METAR: KBLM 150756Z AUTO 25012G17KT 10SM CLR 06/01 A2959 RMK AO2 PRESRR SLP021 T00560006

czas: 03:59 (08:59 UTC)


TAF: brakujący

Obserwacja i prognoza pogody dla ponad 4000 lotnisk (raport METAR i TAF).

Dostępne stacje oznaczono żółtymi i czerwonymi punktami na mapie.

Najedź kursorem aby zobaczyć nazwę stacji.

Kliknij aby zobaczyć obserwacje i prognozy pogody.

Aby zmienić mapę: kliknij na zielony przycisk z czarnym krzyżykiem, aby powiększyć; na zielony przycisk z myślnikiem, aby pomniejszyć; na zielone strzałki, aby przejść do map sąsiednich.


METAR-TAF: